Time;durP1;ratioP1;P1;durP2;ratioP2;P2;SDS_P1;SDS_P2;PMS_P1;PMS_P2;Temp;Humidity;BMP_temperature;BMP_pressure;BME280_temperature;BME280_humidity;BME280_pressure;Samples;Min_cycle;Max_cycle;Signal;HPM_P1;HPM_P2
2022/10/16 00:02:14;;;;;;;0.22;0.22;;;;;;;;;;5049989;28;20048;-89
2022/10/16 00:04:41;;;;;;;0.40;0.25;;;;;;;;;;5033334;28;20057;-88
2022/10/16 00:07:08;;;;;;;3.75;0.30;;;;;;;;;;5034296;28;20056;-89
2022/10/16 00:09:36;;;;;;;0.63;0.20;;;;;;;;;;5048703;28;20065;-88
2022/10/16 00:12:04;;;;;;;4.30;0.32;;;;;;;;;;5050091;28;20045;-88
2022/10/16 00:14:31;;;;;;;0.98;0.32;;;;;;;;;;5049650;28;20498;-89
2022/10/16 00:16:58;;;;;;;0.28;0.22;;;;;;;;;;5049827;28;20061;-89
2022/10/16 00:19:25;;;;;;;0.57;0.15;;;;;;;;;;5049462;28;20080;-88
2022/10/16 00:21:52;;;;;;;0.80;0.20;;;;;;;;;;5034155;28;20041;-87
2022/10/16 00:24:20;;;;;;;2.58;0.35;;;;;;;;;;5034042;28;20053;-88
2022/10/16 00:26:49;;;;;;;1.05;0.30;;;;;;;;;;5034009;28;20516;-89
2022/10/16 00:29:17;;;;;;;2.05;0.38;;;;;;;;;;5049539;28;20052;-89
2022/10/16 00:31:44;;;;;;;3.20;0.38;;;;;;;;;;5033800;28;20409;-88
2022/10/16 00:34:11;;;;;;;0.75;0.15;;;;;;;;;;5049212;28;20049;-88
2022/10/16 00:36:38;;;;;;;1.40;0.20;;;;;;;;;;5049380;28;20490;-88
2022/10/16 00:39:05;;;;;;;0.20;0.20;;;;;;;;;;5049255;28;20057;-88
2022/10/16 00:41:33;;;;;;;0.55;0.30;;;;;;;;;;5049198;28;20060;-88
2022/10/16 00:44:01;;;;;;;0.20;0.20;;;;;;;;;;5049055;28;20433;-89
2022/10/16 00:46:34;;;;;;;1.42;0.30;;;;;;;;;;5049284;28;20054;-88
2022/10/16 00:49:10;;;;;;;0.40;0.40;;;;;;;;;;5033658;28;20452;-88
2022/10/16 00:51:39;;;;;;;1.95;0.30;;;;;;;;;;5033725;28;20067;-88
2022/10/16 00:54:11;;;;;;;0.40;0.30;;;;;;;;;;5033714;28;20052;-89
2022/10/16 00:56:38;;;;;;;0.30;0.30;;;;;;;;;;5033578;28;20128;-88
2022/10/16 00:59:08;;;;;;;2.38;0.30;;;;;;;;;;5048911;28;20049;-89
2022/10/16 01:01:37;;;;;;;0.85;0.38;;;;;;;;;;5048961;28;20060;-89
2022/10/16 01:04:04;;;;;;;3.03;0.30;;;;;;;;;;5049038;28;20056;-89
2022/10/16 01:06:39;;;;;;;0.40;0.40;;;;;;;;;;5033313;28;20395;-89
2022/10/16 01:09:13;;;;;;;1.77;0.43;;;;;;;;;;5048977;28;20516;-89
2022/10/16 01:11:59;;;;;;;2.78;0.60;;;;;;;;;;5048853;28;20068;-88
2022/10/16 01:14:26;;;;;;;0.45;0.38;;;;;;;;;;5033517;28;20045;-88
2022/10/16 01:16:58;;;;;;;0.47;0.47;;;;;;;;;;5049091;28;20045;-90
2022/10/16 01:19:32;;;;;;;2.00;0.40;;;;;;;;;;5033260;28;20054;-89
2022/10/16 01:21:59;;;;;;;;;;;;;;;;;;5038004;28;20051;-88
2022/10/16 01:24:32;;;;;;;0.35;0.35;;;;;;;;;;5036236;28;19928;-91
2022/10/16 01:27:04;;;;;;;0.77;0.40;;;;;;;;;;5053365;28;20045;-88
2022/10/16 01:29:37;;;;;;;2.83;0.50;;;;;;;;;;5053090;28;20053;-88
2022/10/16 01:32:27;;;;;;;2.22;0.40;;;;;;;;;;5052855;28;20045;-89
2022/10/16 01:34:58;;;;;;;1.60;0.50;;;;;;;;;;5052647;28;20053;-88
2022/10/16 01:37:46;;;;;;;1.08;0.60;;;;;;;;;;5052897;28;20057;-88
2022/10/16 01:40:17;;;;;;;0.30;0.15;;;;;;;;;;5037172;28;20061;-89
2022/10/16 01:42:51;;;;;;;0.93;0.28;;;;;;;;;;5052701;28;20408;-89
2022/10/16 01:45:19;;;;;;;2.72;0.40;;;;;;;;;;5036870;28;20111;-89
2022/10/16 01:47:48;;;;;;;0.30;0.30;;;;;;;;;;5036968;28;20517;-89
2022/10/16 01:50:16;;;;;;;0.82;0.40;;;;;;;;;;5052606;28;20049;-88
2022/10/16 01:52:45;;;;;;;0.60;0.32;;;;;;;;;;5052396;28;20482;-89
2022/10/16 01:55:14;;;;;;;0.80;0.38;;;;;;;;;;5052309;28;20395;-88
2022/10/16 01:57:44;;;;;;;4.13;0.40;;;;;;;;;;5052355;28;20053;-88
2022/10/16 02:00:13;;;;;;;0.63;0.55;;;;;;;;;;5052154;28;20045;-89
2022/10/16 02:02:41;;;;;;;2.20;0.40;;;;;;;;;;5052219;28;20046;-90
2022/10/16 02:05:22;;;;;;;0.30;0.30;;;;;;;;;;5052393;28;20068;-89
2022/10/16 02:07:49;;;;;;;3.38;0.60;;;;;;;;;;5052240;28;20055;-88
2022/10/16 02:10:17;;;;;;;1.85;0.30;;;;;;;;;;5036423;28;20176;-88
2022/10/16 02:12:51;;;;;;;0.40;0.40;;;;;;;;;;5051933;28;20132;-88
2022/10/16 02:15:18;;;;;;;1.15;0.25;;;;;;;;;;5051978;28;20063;-88
2022/10/16 02:17:45;;;;;;;0.93;0.50;;;;;;;;;;5051981;28;20049;-92
2022/10/16 02:20:13;;;;;;;2.80;0.35;;;;;;;;;;5051990;28;20132;-89
2022/10/16 02:22:43;;;;;;;0.30;0.30;;;;;;;;;;5036138;28;20063;-88
2022/10/16 02:25:11;;;;;;;0.40;0.35;;;;;;;;;;5051789;28;20057;-88
2022/10/16 02:27:59;;;;;;;1.77;0.55;;;;;;;;;;5036494;28;20056;-88
2022/10/16 02:30:26;;;;;;;0.28;0.20;;;;;;;;;;5025461;28;20391;-90
2022/10/16 02:32:54;;;;;;;3.70;0.40;;;;;;;;;;5050752;28;20056;-88
2022/10/16 02:35:22;;;;;;;4.43;0.50;;;;;;;;;;5036078;28;20052;-89
2022/10/16 02:37:50;;;;;;;5.85;1.05;;;;;;;;;;5051767;28;20065;-89
2022/10/16 02:40:18;;;;;;;1.75;0.50;;;;;;;;;;5051585;28;20057;-90
2022/10/16 02:42:51;;;;;;;0.98;0.52;;;;;;;;;;5036347;28;20494;-88
2022/10/16 02:45:19;;;;;;;9.80;1.48;;;;;;;;;;5035939;28;20129;-88
2022/10/16 02:47:46;;;;;;;2.47;0.50;;;;;;;;;;5051487;28;20060;-88
2022/10/16 02:50:14;;;;;;;6.40;0.80;;;;;;;;;;5035994;28;20414;-88
2022/10/16 02:52:41;;;;;;;2.40;0.68;;;;;;;;;;5035783;28;20049;-88
2022/10/16 02:55:09;;;;;;;1.35;0.45;;;;;;;;;;5035617;28;20057;-88
2022/10/16 02:57:37;;;;;;;5.88;0.73;;;;;;;;;;5035609;28;20049;-87
2022/10/16 03:00:05;;;;;;;4.10;0.80;;;;;;;;;;5051199;28;20137;-88
2022/10/16 03:02:32;;;;;;;5.55;0.82;;;;;;;;;;5034490;28;20505;-87
2022/10/16 03:04:59;;;;;;;5.80;1.30;;;;;;;;;;5050995;28;20041;-88
2022/10/16 03:07:26;;;;;;;0.98;0.65;;;;;;;;;;5050945;28;20064;-88
2022/10/16 03:09:55;;;;;;;1.77;0.60;;;;;;;;;;5035423;28;20061;-88
2022/10/16 03:12:22;;;;;;;0.50;0.50;;;;;;;;;;5035422;28;20045;-88
2022/10/16 03:14:49;;;;;;;4.90;0.60;;;;;;;;;;5035002;28;20053;-89
2022/10/16 03:17:16;;;;;;;0.82;0.73;;;;;;;;;;5051044;28;20056;-88
2022/10/16 03:19:43;;;;;;;2.88;0.60;;;;;;;;;;5035122;28;20136;-88
2022/10/16 03:22:11;;;;;;;1.13;0.60;;;;;;;;;;5035246;28;20564;-88
2022/10/16 03:24:38;;;;;;;1.70;0.73;;;;;;;;;;5050623;28;20049;-88
2022/10/16 03:27:05;;;;;;;4.57;0.90;;;;;;;;;;5050711;28;20061;-88
2022/10/16 03:29:33;;;;;;;2.97;0.77;;;;;;;;;;5050548;28;20057;-88
2022/10/16 03:32:00;;;;;;;0.98;0.85;;;;;;;;;;5035275;28;20056;-88
2022/10/16 03:34:27;;;;;;;0.70;0.70;;;;;;;;;;5050408;28;20228;-88
2022/10/16 03:36:54;;;;;;;1.00;0.90;;;;;;;;;;5035084;28;20056;-88
2022/10/16 03:39:22;;;;;;;2.50;0.75;;;;;;;;;;5050513;28;20482;-88
2022/10/16 03:41:49;;;;;;;0.63;0.63;;;;;;;;;;5050123;28;20049;-88
2022/10/16 03:44:16;;;;;;;1.25;0.80;;;;;;;;;;5034742;28;20081;-88
2022/10/16 03:46:43;;;;;;;0.93;0.55;;;;;;;;;;5053220;28;20045;-88
2022/10/16 03:49:11;;;;;;;1.00;1.00;;;;;;;;;;5036847;28;20049;-88
2022/10/16 03:51:38;;;;;;;2.00;1.17;;;;;;;;;;5051184;28;20065;-89
2022/10/16 03:54:05;;;;;;;0.90;0.90;;;;;;;;;;5034560;28;20390;-87
2022/10/16 03:56:32;;;;;;;1.00;1.00;;;;;;;;;;5049888;28;20046;-87
2022/10/16 03:59:00;;;;;;;2.35;1.20;;;;;;;;;;5049965;28;20446;-88
2022/10/16 04:01:27;;;;;;;3.75;1.20;;;;;;;;;;5034471;28;20486;-88
2022/10/16 04:03:54;;;;;;;4.63;1.30;;;;;;;;;;5034450;28;20045;-88
2022/10/16 04:06:21;;;;;;;2.45;1.33;;;;;;;;;;5049615;28;20052;-88
2022/10/16 04:08:48;;;;;;;1.75;0.80;;;;;;;;;;5049634;28;20058;-88
2022/10/16 04:11:16;;;;;;;2.85;1.25;;;;;;;;;;5049909;28;20060;-88
2022/10/16 04:13:43;;;;;;;3.03;0.90;;;;;;;;;;5049756;28;20057;-88
2022/10/16 04:16:10;;;;;;;1.08;0.93;;;;;;;;;;5034199;28;20045;-88
2022/10/16 04:18:37;;;;;;;4.20;1.10;;;;;;;;;;5032929;28;20056;-88
2022/10/16 04:21:05;;;;;;;3.17;2.92;;;;;;;;;;5033911;28;20422;-88
2022/10/16 04:23:32;;;;;;;2.83;0.80;;;;;;;;;;5033891;28;20041;-89
2022/10/16 04:26:00;;;;;;;4.10;1.10;;;;;;;;;;5033971;28;20437;-87
2022/10/16 04:28:27;;;;;;;0.95;0.93;;;;;;;;;;5034154;28;20057;-88
2022/10/16 04:30:54;;;;;;;1.80;1.00;;;;;;;;;;5049280;28;20103;-87
2022/10/16 04:33:21;;;;;;;1.25;0.90;;;;;;;;;;5049231;28;20045;-88
2022/10/16 04:35:48;;;;;;;0.82;0.80;;;;;;;;;;5033616;28;20050;-88
2022/10/16 04:38:16;;;;;;;1.95;0.40;;;;;;;;;;5049293;28;20065;-87
2022/10/16 04:40:43;;;;;;;0.30;0.30;;;;;;;;;;5049112;28;20061;-88
2022/10/16 04:43:10;;;;;;;1.95;0.40;;;;;;;;;;5049405;28;20053;-87
2022/10/16 04:45:37;;;;;;;0.40;0.40;;;;;;;;;;5049138;28;20095;-88
2022/10/16 04:48:04;;;;;;;0.40;0.40;;;;;;;;;;5033913;28;20053;-88
2022/10/16 04:50:32;;;;;;;0.93;0.40;;;;;;;;;;5033293;28;20054;-88
2022/10/16 04:52:59;;;;;;;0.30;0.30;;;;;;;;;;5033791;28;20421;-88
2022/10/16 04:55:26;;;;;;;0.73;0.35;;;;;;;;;;5033154;28;20053;-88
2022/10/16 04:57:53;;;;;;;1.52;0.60;;;;;;;;;;5049174;28;20049;-88
2022/10/16 05:00:22;;;;;;;1.08;0.60;;;;;;;;;;5048799;28;20049;-88
2022/10/16 05:02:50;;;;;;;28.88;2.90;;;;;;;;;;5033764;28;20049;-88
2022/10/16 05:05:21;;;;;;;7.57;1.33;;;;;;;;;;5048981;28;20045;-87
2022/10/16 05:07:49;;;;;;;4.68;0.70;;;;;;;;;;5049161;28;20132;-88
2022/10/16 05:10:16;;;;;;;26.38;2.78;;;;;;;;;;5048715;28;20064;-88
2022/10/16 05:12:43;;;;;;;3.20;0.90;;;;;;;;;;5048835;28;20065;-88
2022/10/16 05:15:11;;;;;;;2.05;0.70;;;;;;;;;;5048817;28;20060;-88
2022/10/16 05:17:38;;;;;;;0.45;0.45;;;;;;;;;;5048697;28;20054;-87
2022/10/16 05:20:10;;;;;;;1.63;0.40;;;;;;;;;;5048099;28;20046;-88
2022/10/16 05:22:37;;;;;;;1.33;0.50;;;;;;;;;;5033259;28;20057;-88
2022/10/16 05:25:05;;;;;;;0.75;0.32;;;;;;;;;;5033269;28;20108;-88
2022/10/16 05:27:32;;;;;;;4.25;0.70;;;;;;;;;;5048617;28;20053;-87
2022/10/16 05:29:59;;;;;;;1.17;0.50;;;;;;;;;;5033329;28;20049;-88
2022/10/16 05:32:26;;;;;;;0.73;0.57;;;;;;;;;;5033227;28;20482;-88
2022/10/16 05:34:53;;;;;;;2.78;0.73;;;;;;;;;;5048746;28;20045;-88
2022/10/16 05:37:21;;;;;;;6.82;1.42;;;;;;;;;;5033160;28;20069;-88
2022/10/16 05:39:48;;;;;;;4.30;0.90;;;;;;;;;;5033053;28;20050;-88
2022/10/16 05:42:15;;;;;;;2.90;0.68;;;;;;;;;;5048638;28;20085;-89
2022/10/16 05:44:42;;;;;;;2.15;0.82;;;;;;;;;;5048282;28;20094;-88
2022/10/16 05:47:10;;;;;;;5.22;0.80;;;;;;;;;;5033152;28;20054;-88
2022/10/16 05:49:37;;;;;;;2.55;1.10;;;;;;;;;;5048670;28;20053;-88
2022/10/16 05:52:07;;;;;;;2.95;0.80;;;;;;;;;;5048069;28;20049;-88
2022/10/16 05:54:34;;;;;;;0.63;0.60;;;;;;;;;;5048416;28;20140;-88
2022/10/16 05:57:02;;;;;;;2.40;0.80;;;;;;;;;;5048403;28;20045;-88
2022/10/16 05:59:29;;;;;;;1.63;0.70;;;;;;;;;;5033010;28;20046;-88
2022/10/16 06:01:56;;;;;;;4.70;0.90;;;;;;;;;;5048556;28;20056;-88
2022/10/16 06:04:23;;;;;;;1.75;1.08;;;;;;;;;;5032795;28;20048;-88
2022/10/16 06:06:50;;;;;;;0.70;0.60;;;;;;;;;;5033436;28;20508;-88
2022/10/16 06:09:17;;;;;;;1.65;0.70;;;;;;;;;;5051824;28;20057;-88
2022/10/16 06:11:45;;;;;;;1.00;0.80;;;;;;;;;;5036417;28;20502;-89
2022/10/16 06:14:12;;;;;;;2.53;0.93;;;;;;;;;;5052105;28;20049;-88
2022/10/16 06:16:39;;;;;;;2.42;0.90;;;;;;;;;;5036463;28;20565;-88
2022/10/16 06:19:08;;;;;;;1.23;0.70;;;;;;;;;;5036470;28;20049;-88
2022/10/16 06:21:35;;;;;;;1.98;0.70;;;;;;;;;;5036314;28;20053;-88
2022/10/16 06:24:02;;;;;;;7.68;1.00;;;;;;;;;;5036301;28;20049;-88
2022/10/16 06:26:30;;;;;;;1.80;1.00;;;;;;;;;;5051915;28;20053;-88
2022/10/16 06:28:58;;;;;;;1.65;1.40;;;;;;;;;;5036268;28;20498;-88
2022/10/16 06:31:30;;;;;;;5.38;2.08;;;;;;;;;;5051566;28;20103;-88
2022/10/16 06:33:57;;;;;;;3.95;1.83;;;;;;;;;;5051716;28;20429;-87
2022/10/16 06:36:25;;;;;;;3.85;2.88;;;;;;;;;;5051436;28;20049;-88
2022/10/16 06:38:52;;;;;;;3.40;3.10;;;;;;;;;;5051666;28;20053;-88
2022/10/16 06:41:21;;;;;;;5.22;3.28;;;;;;;;;;5036034;28;20391;-88
2022/10/16 06:43:48;;;;;;;3.40;3.10;;;;;;;;;;5051380;28;20409;-88
2022/10/16 06:46:17;;;;;;;3.03;2.08;;;;;;;;;;5051407;28;20486;-88
2022/10/16 06:48:44;;;;;;;2.95;1.48;;;;;;;;;;5051454;28;20055;-88
2022/10/16 06:51:13;;;;;;;1.45;1.25;;;;;;;;;;5051324;28;20057;-88
2022/10/16 06:53:42;;;;;;;3.28;1.63;;;;;;;;;;5051618;28;20084;-88
2022/10/16 06:56:30;;;;;;;8.55;1.52;;;;;;;;;;5035932;28;20103;-88
2022/10/16 06:58:58;;;;;;;7.97;1.80;;;;;;;;;;5051243;28;20054;-88
2022/10/16 07:01:26;;;;;;;8.27;1.98;;;;;;;;;;5051286;28;20493;-88
2022/10/16 07:03:53;;;;;;;13.80;2.40;;;;;;;;;;5051013;28;20516;-89
2022/10/16 07:06:22;;;;;;;7.30;1.92;;;;;;;;;;5051159;28;20444;-88
2022/10/16 07:08:49;;;;;;;6.30;2.17;;;;;;;;;;5051051;28;20069;-88
2022/10/16 07:11:21;;;;;;;5.45;2.30;;;;;;;;;;5051140;28;20045;-88
2022/10/16 07:13:51;;;;;;;4.32;1.75;;;;;;;;;;5050996;28;20053;-88
2022/10/16 07:16:22;;;;;;;;;;;;;;;;;;5035964;28;20048;-88
2022/10/16 07:18:52;;;;;;;6.90;2.15;;;;;;;;;;5035028;28;20305;-87
2022/10/16 07:21:22;;;;;;;3.78;2.00;;;;;;;;;;5035078;28;20045;-88
2022/10/16 07:23:57;;;;;;;5.18;2.00;;;;;;;;;;5035443;28;20057;-87
2022/10/16 07:26:25;;;;;;;2.55;2.35;;;;;;;;;;5035278;28;20524;-88
2022/10/16 07:28:52;;;;;;;6.22;5.38;;;;;;;;;;5050768;28;20050;-88
2022/10/16 07:31:26;;;;;;;3.10;2.85;;;;;;;;;;5050712;28;20050;-89
2022/10/16 07:33:53;;;;;;;5.18;3.40;;;;;;;;;;5035138;28;20057;-88
2022/10/16 07:36:21;;;;;;;4.25;3.85;;;;;;;;;;5050634;28;20045;-88
2022/10/16 07:38:51;;;;;;;16.98;15.23;;;;;;;;;;5035318;28;20052;-89
2022/10/16 07:41:23;;;;;;;9.30;8.60;;;;;;;;;;5049826;28;20048;-88
2022/10/16 07:43:51;;;;;;;1.80;1.70;;;;;;;;;;5050739;28;20052;-88
2022/10/16 07:46:20;;;;;;;1.38;1.27;;;;;;;;;;5034772;28;20420;-88
2022/10/16 07:48:48;;;;;;;6.65;4.07;;;;;;;;;;5051941;28;20412;-88
2022/10/16 07:51:16;;;;;;;4.57;4.10;;;;;;;;;;5036055;28;20049;-88
2022/10/16 07:53:43;;;;;;;1.20;1.10;;;;;;;;;;5051498;28;20045;-88
2022/10/16 07:56:11;;;;;;;1.67;0.90;;;;;;;;;;5051966;28;20041;-88
2022/10/16 07:58:39;;;;;;;0.77;0.77;;;;;;;;;;5036231;28;20065;-87
2022/10/16 08:01:07;;;;;;;1.65;0.60;;;;;;;;;;5049899;28;20042;-88
2022/10/16 08:03:34;;;;;;;0.50;0.50;;;;;;;;;;5034360;28;20053;-88
2022/10/16 08:06:02;;;;;;;0.80;0.60;;;;;;;;;;5049694;28;20047;-88
2022/10/16 08:08:29;;;;;;;1.65;0.85;;;;;;;;;;5049778;28;20057;-87
2022/10/16 08:10:57;;;;;;;2.85;1.48;;;;;;;;;;5034538;28;20045;-88
2022/10/16 08:13:24;;;;;;;3.70;0.80;;;;;;;;;;5034677;28;20061;-90
2022/10/16 08:15:51;;;;;;;1.67;0.68;;;;;;;;;;5050182;28;20132;-92
2022/10/16 08:18:18;;;;;;;0.68;0.68;;;;;;;;;;5050694;28;20136;-93
2022/10/16 08:20:46;;;;;;;1.58;0.65;;;;;;;;;;5050059;28;20050;-91
2022/10/16 08:23:13;;;;;;;3.20;0.70;;;;;;;;;;5049634;28;20401;-88
2022/10/16 08:25:41;;;;;;;0.88;0.80;;;;;;;;;;5049718;28;20470;-87
2022/10/16 08:28:12;;;;;;;2.38;0.63;;;;;;;;;;5050054;28;20058;-87
2022/10/16 08:30:40;;;;;;;6.07;1.00;;;;;;;;;;5049177;28;20064;-89
2022/10/16 08:33:07;;;;;;;1.55;0.85;;;;;;;;;;5050126;28;20264;-87
2022/10/16 08:35:35;;;;;;;0.98;0.98;;;;;;;;;;5049838;28;20056;-88
2022/10/16 08:38:06;;;;;;;0.80;0.80;;;;;;;;;;5050637;28;20049;-92
2022/10/16 08:40:36;;;;;;;0.60;0.60;;;;;;;;;;5034954;28;20049;-89
2022/10/16 08:43:12;;;;;;;0.80;0.80;;;;;;;;;;5050194;28;20132;-87
2022/10/16 08:46:07;;;;;;;1.00;1.00;;;;;;;;;;5033937;28;20056;-88
2022/10/16 08:48:40;;;;;;;1.75;0.90;;;;;;;;;;5049615;28;20049;-87
2022/10/16 08:51:08;;;;;;;1.70;0.70;;;;;;;;;;5034018;28;20053;-88
2022/10/16 08:53:43;;;;;;;0.75;0.60;;;;;;;;;;5049444;28;20060;-90
2022/10/16 08:56:11;;;;;;;2.17;0.95;;;;;;;;;;5049115;28;20401;-88
2022/10/16 08:58:38;;;;;;;0.50;0.50;;;;;;;;;;5033791;28;20055;-87
2022/10/16 09:01:12;;;;;;;1.60;0.73;;;;;;;;;;5033624;28;20042;-87
2022/10/16 09:03:51;;;;;;;0.95;0.60;;;;;;;;;;5033735;28;20088;-92
2022/10/16 09:06:18;;;;;;;2.60;0.50;;;;;;;;;;5049083;28;20405;-89
2022/10/16 09:08:48;;;;;;;0.55;0.40;;;;;;;;;;5048941;28;20065;-89
2022/10/16 09:11:22;;;;;;;2.53;0.70;;;;;;;;;;5049222;28;20136;-88
2022/10/16 09:14:01;;;;;;;1.38;0.70;;;;;;;;;;5034003;28;20049;-90
2022/10/16 09:16:34;;;;;;;2.08;0.80;;;;;;;;;;5048879;28;20045;-88
2022/10/16 09:19:05;;;;;;;0.73;0.70;;;;;;;;;;5048804;28;20053;-88
2022/10/16 09:21:44;;;;;;;0.38;0.38;;;;;;;;;;5048678;28;20064;-89
2022/10/16 09:24:11;;;;;;;0.77;0.40;;;;;;;;;;5033312;28;20050;-91
2022/10/16 09:26:38;;;;;;;2.15;0.57;;;;;;;;;;5033261;28;20054;-87
2022/10/16 09:29:05;;;;;;;1.48;0.60;;;;;;;;;;5033199;28;20056;-89
2022/10/16 09:31:37;;;;;;;0.68;0.50;;;;;;;;;;5048802;28;20056;-88
2022/10/16 09:34:05;;;;;;;0.95;0.50;;;;;;;;;;5048706;28;20053;-89
2022/10/16 09:36:40;;;;;;;0.65;0.60;;;;;;;;;;5033319;28;20053;-87
2022/10/16 09:39:09;;;;;;;1.42;0.70;;;;;;;;;;5033921;28;20050;-88
2022/10/16 09:41:37;;;;;;;2.53;0.45;;;;;;;;;;5050655;28;20067;-90
2022/10/16 09:44:14;;;;;;;0.50;0.40;;;;;;;;;;5037088;28;20045;-87
2022/10/16 09:46:41;;;;;;;1.98;0.60;;;;;;;;;;5037184;28;20486;-91
2022/10/16 09:49:22;;;;;;;0.82;0.40;;;;;;;;;;5052940;28;20085;-89
2022/10/16 09:51:50;;;;;;;1.08;0.70;;;;;;;;;;5052450;28;20046;-89
2022/10/16 09:54:19;;;;;;;0.80;0.50;;;;;;;;;;5052576;28;20053;-88
2022/10/16 09:56:51;;;;;;;1.25;0.35;;;;;;;;;;5037036;28;20041;-88
2022/10/16 09:59:19;;;;;;;1.55;0.47;;;;;;;;;;5052525;28;20516;-88
2022/10/16 10:01:48;;;;;;;2.47;0.50;;;;;;;;;;5036918;28;20057;-89
2022/10/16 10:04:15;;;;;;;3.75;0.70;;;;;;;;;;5052518;28;20158;-88
2022/10/16 10:06:44;;;;;;;0.63;0.30;;;;;;;;;;5036822;28;20049;-88
2022/10/16 10:09:20;;;;;;;2.80;0.40;;;;;;;;;;5052321;28;20057;-88
2022/10/16 10:11:57;;;;;;;1.73;0.40;;;;;;;;;;5052282;28;20053;-89
2022/10/16 10:14:24;;;;;;;2.20;0.40;;;;;;;;;;5052182;28;20049;-90
2022/10/16 10:17:07;;;;;;;0.85;0.70;;;;;;;;;;5052474;28;20054;-89
2022/10/16 10:19:52;;;;;;;0.43;0.35;;;;;;;;;;5050808;28;20053;-92
2022/10/16 10:22:19;;;;;;;0.45;0.40;;;;;;;;;;5036273;28;20056;-91
2022/10/16 10:24:56;;;;;;;1.02;0.40;;;;;;;;;;5052020;28;20056;-89
2022/10/16 10:27:26;;;;;;;0.30;0.30;;;;;;;;;;5051818;28;20156;-89
2022/10/16 10:30:05;;;;;;;1.27;0.30;;;;;;;;;;5051953;28;20156;-91
2022/10/16 10:32:51;;;;;;;0.30;0.30;;;;;;;;;;5051898;28;20501;-91
2022/10/16 10:35:22;;;;;;;0.50;0.40;;;;;;;;;;5051812;28;20057;-88
2022/10/16 10:37:58;;;;;;;2.67;0.30;;;;;;;;;;5051871;28;20057;-92
2022/10/16 10:40:35;;;;;;;0.30;0.30;;;;;;;;;;5051623;28;20141;-88
2022/10/16 10:43:08;;;;;;;0.77;0.50;;;;;;;;;;5051928;28;20045;-89
2022/10/16 10:45:48;;;;;;;1.35;0.70;;;;;;;;;;5036151;28;20060;-88
2022/10/16 10:48:20;;;;;;;3.92;0.55;;;;;;;;;;5035695;28;20060;-88
2022/10/16 10:50:54;;;;;;;4.07;0.70;;;;;;;;;;5051214;28;20052;-87
2022/10/16 10:53:29;;;;;;;1.85;0.60;;;;;;;;;;5050551;28;20045;-88
2022/10/16 10:56:13;;;;;;;0.50;0.50;;;;;;;;;;5035691;28;20053;-88
2022/10/16 10:58:57;;;;;;;0.50;0.50;;;;;;;;;;5051135;28;20057;-88
2022/10/16 11:01:36;;;;;;;0.50;0.50;;;;;;;;;;5051318;28;20080;-87
2022/10/16 11:04:13;;;;;;;2.47;0.60;;;;;;;;;;5035511;28;20050;-87
2022/10/16 11:06:41;;;;;;;2.95;0.55;;;;;;;;;;5051014;28;20056;-87
2022/10/16 11:09:12;;;;;;;2.08;0.60;;;;;;;;;;5051128;28;20057;-87
2022/10/16 11:11:43;;;;;;;1.80;0.40;;;;;;;;;;5050973;28;20049;-88
2022/10/16 11:14:16;;;;;;;1.17;0.60;;;;;;;;;;5050902;28;20049;-89
2022/10/16 11:16:52;;;;;;;2.05;0.88;;;;;;;;;;5050977;28;20474;-89
2022/10/16 11:19:38;;;;;;;0.90;0.70;;;;;;;;;;5050862;28;20053;-89
2022/10/16 11:22:24;;;;;;;0.50;0.50;;;;;;;;;;5051029;28;20049;-88
2022/10/16 11:24:51;;;;;;;0.60;0.55;;;;;;;;;;5050615;28;20060;-88
2022/10/16 11:27:34;;;;;;;3.63;0.55;;;;;;;;;;5050494;28;20136;-89
2022/10/16 11:30:04;;;;;;;3.83;0.80;;;;;;;;;;5035367;28;20053;-88
2022/10/16 11:33:03;;;;;;;0.60;0.60;;;;;;;;;;5035024;28;20091;-88
2022/10/16 11:35:36;;;;;;;1.13;0.60;;;;;;;;;;5002286;28;20060;-89
2022/10/16 11:38:04;;;;;;;8.82;1.90;;;;;;;;;;5034992;28;20050;-88
2022/10/16 11:40:37;;;;;;;3.47;1.00;;;;;;;;;;5050547;28;20493;-88
2022/10/16 11:43:16;;;;;;;0.63;0.57;;;;;;;;;;5050333;28;20065;-87
2022/10/16 11:45:45;;;;;;;1.85;0.77;;;;;;;;;;5050374;28;20056;-88
2022/10/16 11:48:23;;;;;;;0.68;0.68;;;;;;;;;;5050322;28;20053;-87
2022/10/16 11:50:53;;;;;;;2.20;0.82;;;;;;;;;;5050212;28;20050;-88
2022/10/16 11:53:50;;;;;;;1.25;1.25;;;;;;;;;;5034466;28;20050;-88
2022/10/16 11:56:19;;;;;;;0.95;0.95;;;;;;;;;;5020997;28;20046;-87
2022/10/16 11:58:58;;;;;;;1.20;0.70;;;;;;;;;;5049846;28;20060;-87
2022/10/16 12:01:44;;;;;;;0.65;0.65;;;;;;;;;;5034464;28;20509;-88
2022/10/16 12:04:17;;;;;;;1.30;0.63;;;;;;;;;;5033658;28;20045;-87
2022/10/16 12:06:48;;;;;;;1.90;0.70;;;;;;;;;;5050048;28;20045;-88
2022/10/16 12:09:35;;;;;;;1.00;0.60;;;;;;;;;;5049719;28;20391;-87
2022/10/16 12:12:02;;;;;;;1.13;0.75;;;;;;;;;;5049757;28;20049;-88
2022/10/16 12:14:29;;;;;;;1.85;0.40;;;;;;;;;;5034291;28;20057;-88
2022/10/16 12:16:59;;;;;;;0.35;0.35;;;;;;;;;;5049812;28;20042;-88
2022/10/16 12:19:28;;;;;;;2.40;0.45;;;;;;;;;;5049913;28;20046;-88
2022/10/16 12:21:57;;;;;;;1.33;0.50;;;;;;;;;;5049916;28;20061;-88
2022/10/16 12:24:43;;;;;;;0.45;0.30;;;;;;;;;;5049263;28;20053;-88
2022/10/16 12:27:29;;;;;;;1.65;0.30;;;;;;;;;;5049630;28;20053;-89
2022/10/16 12:29:58;;;;;;;4.80;0.65;;;;;;;;;;5049830;28;20045;-88
2022/10/16 12:32:36;;;;;;;0.32;0.20;;;;;;;;;;5034078;28;20060;-88
2022/10/16 12:35:24;;;;;;;0.55;0.43;;;;;;;;;;5033848;28;20045;-88
2022/10/16 12:37:52;;;;;;;0.73;0.28;;;;;;;;;;5033933;28;20049;-87
2022/10/16 12:40:30;;;;;;;0.50;0.30;;;;;;;;;;5049780;28;20581;-91
2022/10/16 12:42:58;;;;;;;0.73;0.20;;;;;;;;;;5033934;28;20050;-90
2022/10/16 12:45:30;;;;;;;0.55;0.43;;;;;;;;;;5049576;28;20071;-89
2022/10/16 12:47:59;;;;;;;1.97;0.30;;;;;;;;;;5049723;28;20457;-89
2022/10/16 12:50:40;;;;;;;1.95;0.25;;;;;;;;;;5034609;28;20053;-88
2022/10/16 12:53:28;;;;;;;0.50;0.28;;;;;;;;;;5033861;28;20052;-88
2022/10/16 12:56:10;;;;;;;0.20;0.20;;;;;;;;;;5049355;28;20421;-90
2022/10/16 12:58:56;;;;;;;0.90;0.30;;;;;;;;;;5033673;28;20132;-88
2022/10/16 13:01:34;;;;;;;0.52;0.30;;;;;;;;;;5049352;28;20057;-90
2022/10/16 13:04:21;;;;;;;0.73;0.20;;;;;;;;;;5049172;28;20049;-91
2022/10/16 13:07:00;;;;;;;3.70;0.60;;;;;;;;;;5033908;28;20041;-88
2022/10/16 13:09:39;;;;;;;1.85;0.40;;;;;;;;;;5049308;28;20054;-88
2022/10/16 13:12:16;;;;;;;1.83;0.30;;;;;;;;;;5033578;28;20054;-88
2022/10/16 13:14:46;;;;;;;0.55;0.32;;;;;;;;;;5049309;28;20067;-94
2022/10/16 13:17:26;;;;;;;0.75;0.20;;;;;;;;;;5048731;28;20045;-91
2022/10/16 13:20:00;;;;;;;0.35;0.17;;;;;;;;;;5049320;28;20461;-92
2022/10/16 13:22:32;;;;;;;0.82;0.20;;;;;;;;;;5033571;28;20053;-88
2022/10/16 13:25:18;;;;;;;1.23;0.25;;;;;;;;;;5049389;28;20053;-89
2022/10/16 13:27:46;;;;;;;1.27;0.20;;;;;;;;;;5049714;28;20053;-88
2022/10/16 13:30:18;;;;;;;0.35;0.20;;;;;;;;;;5034050;28;20056;-89
2022/10/16 13:32:47;;;;;;;0.25;0.20;;;;;;;;;;5048970;28;20049;-89
2022/10/16 13:35:28;;;;;;;1.55;0.20;;;;;;;;;;5048722;28;20099;-90
2022/10/16 13:38:25;;;;;;;0.28;0.25;;;;;;;;;;5049777;28;20045;-89
2022/10/16 13:40:54;;;;;;;0.10;0.10;;;;;;;;;;5020931;28;20052;-89
2022/10/16 13:43:26;;;;;;;0.20;0.20;;;;;;;;;;5049799;28;20053;-92
2022/10/16 13:46:01;;;;;;;2.38;0.20;;;;;;;;;;5033394;28;20486;-90
2022/10/16 13:48:29;;;;;;;0.90;0.17;;;;;;;;;;5049485;28;20395;-93
2022/10/16 13:51:04;;;;;;;1.85;0.10;;;;;;;;;;5033914;28;20049;-91
2022/10/16 13:53:32;;;;;;;1.27;0.30;;;;;;;;;;5049128;28;20064;-92
2022/10/16 13:56:00;;;;;;;1.55;0.20;;;;;;;;;;5049437;28;20061;-91
2022/10/16 13:58:27;;;;;;;0.28;0.28;;;;;;;;;;5049494;28;20053;-91
2022/10/16 14:00:56;;;;;;;2.92;0.20;;;;;;;;;;5048896;28;20046;-93
2022/10/16 14:03:23;;;;;;;1.92;0.25;;;;;;;;;;5048822;28;20053;-90
2022/10/16 14:05:52;;;;;;;0.75;0.20;;;;;;;;;;5048369;28;20041;-91
2022/10/16 14:08:19;;;;;;;0.30;0.20;;;;;;;;;;5033133;28;20057;-89
2022/10/16 14:10:51;;;;;;;0.55;0.30;;;;;;;;;;5050876;28;20060;-90
2022/10/16 14:13:20;;;;;;;0.17;0.17;;;;;;;;;;5051325;28;20541;-89
2022/10/16 14:15:49;;;;;;;0.63;0.20;;;;;;;;;;5049387;28;20054;-90
2022/10/16 14:18:19;;;;;;;0.65;0.30;;;;;;;;;;5048654;28;20521;-89
2022/10/16 14:20:49;;;;;;;0.20;0.20;;;;;;;;;;5033465;28;20052;-89
2022/10/16 14:23:19;;;;;;;1.02;0.17;;;;;;;;;;5033109;28;20049;-89
2022/10/16 14:25:47;;;;;;;1.55;0.30;;;;;;;;;;5033152;28;20060;-89
2022/10/16 14:28:14;;;;;;;1.30;0.10;;;;;;;;;;5049880;28;20053;-90
2022/10/16 14:30:58;;;;;;;0.20;0.20;;;;;;;;;;5052203;28;20059;-89
2022/10/16 14:33:29;;;;;;;0.20;0.20;;;;;;;;;;5052028;28;20076;-90
2022/10/16 14:36:05;;;;;;;2.28;0.30;;;;;;;;;;5052055;28;20064;-89
2022/10/16 14:38:33;;;;;;;0.20;0.10;;;;;;;;;;5051966;28;20049;-89
2022/10/16 14:41:01;;;;;;;0.40;0.30;;;;;;;;;;5036670;28;20049;-88
2022/10/16 14:43:31;;;;;;;1.55;0.30;;;;;;;;;;5052032;28;20433;-89
2022/10/16 14:45:59;;;;;;;0.50;0.30;;;;;;;;;;5052270;28;20056;-89
2022/10/16 14:48:26;;;;;;;0.70;0.30;;;;;;;;;;5036038;28;20067;-89
2022/10/16 14:50:54;;;;;;;2.72;0.20;;;;;;;;;;5051509;28;20060;-89
2022/10/16 14:53:21;;;;;;;1.27;0.30;;;;;;;;;;5052040;28;20045;-89
2022/10/16 14:55:48;;;;;;;0.50;0.50;;;;;;;;;;5036377;28;20057;-90
2022/10/16 14:58:16;;;;;;;1.05;0.30;;;;;;;;;;5052303;28;20054;-90
2022/10/16 15:00:44;;;;;;;1.20;0.40;;;;;;;;;;5051785;28;20045;-91
2022/10/16 15:03:11;;;;;;;0.80;0.32;;;;;;;;;;5051312;28;20142;-89
2022/10/16 15:05:38;;;;;;;1.75;0.45;;;;;;;;;;5051510;28;20057;-89